createdAt,value
2022-10-18T00:00:22.530Z,9.15
2022-10-18T00:03:10.652Z,8.73
2022-10-18T00:05:58.665Z,9.00
2022-10-18T00:08:46.587Z,8.88
2022-10-18T00:11:34.553Z,8.25
2022-10-18T00:14:24.416Z,8.73
2022-10-18T00:17:12.368Z,9.50
2022-10-18T00:20:00.235Z,8.98
2022-10-18T00:22:48.086Z,9.02
2022-10-18T00:25:35.659Z,9.98
2022-10-18T00:28:23.467Z,9.10
2022-10-18T00:31:17.708Z,9.07
2022-10-18T00:34:08.313Z,9.38
2022-10-18T00:36:56.235Z,10.70
2022-10-18T00:39:44.157Z,9.57
2022-10-18T00:42:34.880Z,9.57
2022-10-18T00:45:23.859Z,9.75
2022-10-18T00:48:15.115Z,8.90
2022-10-18T00:51:03.126Z,9.52
2022-10-18T00:53:51.267Z,8.85
2022-10-18T00:56:38.766Z,9.05
2022-10-18T00:59:27.590Z,9.55
2022-10-18T01:02:18.337Z,9.52
2022-10-18T01:05:08.743Z,9.43
2022-10-18T01:08:29.756Z,9.00
2022-10-18T01:11:44.282Z,8.70
2022-10-18T01:14:42.664Z,9.00
2022-10-18T01:17:36.988Z,8.82
2022-10-18T01:21:03.256Z,8.63
2022-10-18T01:24:24.123Z,8.70
2022-10-18T01:27:34.358Z,8.35
2022-10-18T01:30:41.549Z,8.70
2022-10-18T01:33:37.176Z,9.10
2022-10-18T01:36:29.843Z,8.63
2022-10-18T01:39:21.633Z,7.72
2022-10-18T01:42:13.379Z,8.85
2022-10-18T01:45:04.766Z,8.80
2022-10-18T01:47:55.487Z,8.95
2022-10-18T01:50:43.602Z,8.75
2022-10-18T01:53:34.305Z,8.32
2022-10-18T01:56:35.068Z,9.30
2022-10-18T01:59:44.281Z,8.57
2022-10-18T02:02:43.041Z,8.93
2022-10-18T02:05:40.329Z,9.18
2022-10-18T02:08:34.272Z,9.18
2022-10-18T02:11:22.780Z,8.95
2022-10-18T02:14:13.625Z,8.77
2022-10-18T02:17:05.534Z,9.68
2022-10-18T02:19:57.096Z,23.63
2022-10-18T02:22:46.739Z,27.80
2022-10-18T02:25:35.708Z,22.80
2022-10-18T02:31:20.239Z,41.50
2022-10-18T02:34:16.697Z,44.17
2022-10-18T02:37:05.125Z,41.13
2022-10-18T02:39:54.489Z,43.17
2022-10-18T02:42:48.026Z,44.63
2022-10-18T02:45:36.299Z,40.10
2022-10-18T02:48:23.855Z,34.55
2022-10-18T02:51:11.713Z,32.17
2022-10-18T02:53:59.640Z,28.75
2022-10-18T02:56:48.908Z,23.17
2022-10-18T02:59:36.781Z,21.75
2022-10-18T03:02:24.437Z,20.02
2022-10-18T03:05:12.236Z,18.48
2022-10-18T03:08:02.812Z,18.45
2022-10-18T03:10:50.603Z,16.40
2022-10-18T03:13:39.812Z,17.38
2022-10-18T03:16:27.550Z,20.48
2022-10-18T03:19:15.271Z,18.85
2022-10-18T03:22:03.581Z,19.73
2022-10-18T03:24:51.549Z,20.38
2022-10-18T03:27:39.363Z,23.75
2022-10-18T03:30:28.334Z,28.08
2022-10-18T03:33:15.982Z,31.05
2022-10-18T03:36:04.005Z,28.90
2022-10-18T03:38:51.558Z,29.60
2022-10-18T03:41:39.359Z,30.35
2022-10-18T03:44:27.022Z,29.80
2022-10-18T03:47:16.169Z,31.52
2022-10-18T03:50:04.165Z,32.35
2022-10-18T03:52:51.849Z,30.05
2022-10-18T03:55:40.139Z,30.45
2022-10-18T03:58:28.239Z,29.00
2022-10-18T04:01:16.286Z,29.27
2022-10-18T04:04:05.351Z,27.80
2022-10-18T04:06:53.120Z,26.63
2022-10-18T04:09:40.599Z,25.15
2022-10-18T04:12:28.333Z,26.13
2022-10-18T04:15:16.325Z,26.42
2022-10-18T04:18:04.550Z,23.45
2022-10-18T04:20:54.186Z,21.45
2022-10-18T04:23:42.108Z,22.17
2022-10-18T04:26:30.060Z,19.60
2022-10-18T04:29:17.708Z,18.20
2022-10-18T04:32:05.888Z,17.00
2022-10-18T04:34:53.562Z,16.58
2022-10-18T04:37:42.375Z,17.92
2022-10-18T04:40:29.887Z,14.77
2022-10-18T04:43:18.185Z,14.63
2022-10-18T04:46:06.245Z,15.13
2022-10-18T04:48:54.062Z,14.82
2022-10-18T04:51:42.156Z,17.38
2022-10-18T04:54:31.387Z,15.68
2022-10-18T04:57:18.983Z,16.13
2022-10-18T05:00:07.860Z,15.40
2022-10-18T05:02:58.518Z,16.17
2022-10-18T05:06:02.958Z,17.27
2022-10-18T05:08:51.397Z,17.45
2022-10-18T05:11:40.902Z,15.40
2022-10-18T05:14:28.833Z,18.40
2022-10-18T05:17:16.691Z,16.65
2022-10-18T05:20:04.428Z,16.23
2022-10-18T05:22:52.405Z,15.82
2022-10-18T05:25:40.502Z,14.80
2022-10-18T05:28:44.891Z,13.77
2022-10-18T05:31:32.733Z,13.32
2022-10-18T05:34:20.927Z,13.90
2022-10-18T05:37:08.987Z,13.98
2022-10-18T05:39:56.444Z,12.52
2022-10-18T05:42:44.292Z,13.98
2022-10-18T05:45:33.531Z,13.15
2022-10-18T05:48:21.115Z,13.70
2022-10-18T05:51:08.686Z,13.32
2022-10-18T05:53:56.249Z,13.15
2022-10-18T05:56:44.274Z,13.82
2022-10-18T05:59:32.383Z,13.80
2022-10-18T06:02:21.262Z,15.23
2022-10-18T06:05:09.026Z,14.60
2022-10-18T06:07:57.963Z,14.40
2022-10-18T06:10:46.184Z,13.57
2022-10-18T06:13:33.997Z,15.20
2022-10-18T06:16:22.881Z,15.27
2022-10-18T06:19:11.822Z,15.30
2022-10-18T06:21:59.364Z,16.90
2022-10-18T06:24:47.213Z,16.10
2022-10-18T06:27:35.786Z,16.63
2022-10-18T06:30:23.436Z,17.40
2022-10-18T06:33:12.008Z,16.23
2022-10-18T06:36:02.742Z,16.17
2022-10-18T06:38:50.750Z,15.43
2022-10-18T06:41:38.970Z,17.10
2022-10-18T06:44:39.924Z,16.27
2022-10-18T06:47:27.985Z,18.23
2022-10-18T06:50:15.667Z,19.17
2022-10-18T06:53:06.391Z,18.08
2022-10-18T06:55:54.447Z,17.50
2022-10-18T06:58:42.452Z,17.83
2022-10-18T07:01:30.569Z,17.77
2022-10-18T07:04:17.996Z,20.83
2022-10-18T07:07:05.691Z,20.48
2022-10-18T07:09:54.936Z,20.65
2022-10-18T07:12:42.813Z,20.63
2022-10-18T07:15:30.454Z,22.15
2022-10-18T07:18:17.847Z,21.08
2022-10-18T07:21:06.255Z,20.48
2022-10-18T07:23:54.598Z,21.25
2022-10-18T07:26:43.582Z,21.52
2022-10-18T07:29:38.192Z,20.20
2022-10-18T07:32:26.039Z,20.85
2022-10-18T07:35:13.901Z,29.45
2022-10-18T07:38:01.848Z,30.35
2022-10-18T07:46:26.104Z,22.95
2022-10-18T08:03:15.308Z,21.50
2022-10-18T08:06:03.274Z,20.52
2022-10-18T08:11:38.589Z,15.77
2022-10-18T08:14:26.224Z,16.33
2022-10-18T08:17:15.149Z,14.63
2022-10-18T08:20:12.400Z,15.45
2022-10-18T08:23:08.234Z,15.35
2022-10-18T08:25:55.857Z,15.15
2022-10-18T08:28:53.590Z,14.43
2022-10-18T08:45:48.457Z,13.68
2022-10-18T08:48:40.104Z,14.82
2022-10-18T08:51:36.570Z,13.30
2022-10-18T08:54:31.403Z,12.40
2022-10-18T08:57:20.187Z,12.30
2022-10-18T09:00:17.480Z,13.10
2022-10-18T09:06:13.873Z,11.75
2022-10-18T09:09:19.374Z,12.25
2022-10-18T09:12:25.090Z,12.35
2022-10-18T09:15:21.321Z,11.63
2022-10-18T09:18:24.908Z,11.43
2022-10-18T09:21:21.108Z,11.93
2022-10-18T09:24:14.450Z,11.82
2022-10-18T09:27:06.559Z,11.43
2022-10-18T09:30:05.153Z,11.82
2022-10-18T09:33:00.720Z,11.60
2022-10-18T09:35:53.535Z,12.30
2022-10-18T09:38:44.787Z,12.50
2022-10-18T09:41:39.096Z,11.60
2022-10-18T09:44:31.290Z,11.30
2022-10-18T09:47:24.862Z,12.43
2022-10-18T09:50:24.169Z,12.02
2022-10-18T09:53:21.264Z,11.20
2022-10-18T09:56:13.183Z,10.30
2022-10-18T09:59:02.269Z,11.30
2022-10-18T10:01:49.829Z,10.68
2022-10-18T10:04:37.726Z,10.57
2022-10-18T10:07:29.937Z,10.85
2022-10-18T10:10:22.992Z,11.25
2022-10-18T10:13:19.005Z,10.65
2022-10-18T10:18:56.659Z,9.93
2022-10-18T10:21:44.695Z,10.40
2022-10-18T10:24:48.782Z,10.90
2022-10-18T10:27:43.611Z,10.40
2022-10-18T10:30:34.262Z,10.50
2022-10-18T10:33:35.834Z,10.25
2022-10-18T11:02:21.835Z,10.57
2022-10-18T11:05:23.218Z,10.15
2022-10-18T11:08:14.402Z,10.88
2022-10-18T11:11:09.991Z,10.55
2022-10-18T11:14:24.267Z,11.00
2022-10-18T11:17:21.105Z,10.80
2022-10-18T11:20:24.320Z,11.07
2022-10-18T11:23:15.210Z,10.98
2022-10-18T11:26:41.064Z,11.00
2022-10-18T11:29:45.280Z,11.35
2022-10-18T11:32:43.588Z,10.85
2022-10-18T11:35:40.603Z,10.73
2022-10-18T11:38:37.537Z,10.65
2022-10-18T11:41:36.308Z,10.63
2022-10-18T11:44:29.995Z,10.93
2022-10-18T11:47:24.914Z,12.10
2022-10-18T11:50:26.836Z,10.48
2022-10-18T11:53:22.537Z,9.80
2022-10-18T11:56:20.742Z,9.68
2022-10-18T11:59:30.050Z,10.20
2022-10-18T12:02:40.108Z,10.35
2022-10-18T12:05:30.039Z,11.10
2022-10-18T12:08:22.626Z,10.43
2022-10-18T12:11:16.632Z,10.45
2022-10-18T12:14:09.193Z,11.20
2022-10-18T12:17:35.931Z,9.93
2022-10-18T12:20:18.110Z,10.52
2022-10-18T12:23:10.456Z,10.00
2022-10-18T12:26:06.593Z,10.25
2022-10-18T12:29:14.120Z,10.70
2022-10-18T12:32:06.978Z,10.05
2022-10-18T12:34:59.488Z,10.60
2022-10-18T12:38:10.191Z,10.38
2022-10-18T12:40:59.163Z,9.93
2022-10-18T12:43:52.887Z,10.27
2022-10-18T12:46:50.695Z,10.00
2022-10-18T12:49:42.647Z,10.07
2022-10-18T12:52:34.620Z,9.77
2022-10-18T12:55:31.034Z,10.15
2022-10-18T12:58:32.868Z,9.40
2022-10-18T13:01:20.771Z,10.48
2022-10-18T13:04:36.447Z,10.52
2022-10-18T13:07:42.178Z,10.48
2022-10-18T13:10:38.810Z,11.00
2022-10-18T13:13:40.817Z,10.63
2022-10-18T13:16:41.370Z,10.20
2022-10-18T13:19:40.414Z,10.50
2022-10-18T13:22:42.586Z,9.73
2022-10-18T13:25:37.319Z,9.45
2022-10-18T13:28:37.704Z,10.48
2022-10-18T13:31:30.756Z,10.35
2022-10-18T13:34:28.142Z,10.00
2022-10-18T13:37:25.360Z,9.73
2022-10-18T13:40:23.598Z,9.45
2022-10-18T13:43:59.428Z,9.48
2022-10-18T13:47:35.843Z,9.70
2022-10-18T13:50:36.224Z,10.10
2022-10-18T13:53:49.709Z,9.52
2022-10-18T13:56:53.583Z,10.98
2022-10-18T13:59:57.080Z,10.88
2022-10-18T14:03:09.238Z,10.60
2022-10-18T14:06:07.621Z,11.27
2022-10-18T14:09:09.380Z,11.30
2022-10-18T14:12:15.517Z,10.90
2022-10-18T14:15:09.138Z,11.05
2022-10-18T14:18:03.285Z,11.65
2022-10-18T14:21:12.678Z,13.70
2022-10-18T14:24:03.219Z,14.90
2022-10-18T14:27:12.913Z,15.27
2022-10-18T14:32:59.684Z,16.73
2022-10-18T14:36:00.792Z,16.20
2022-10-18T14:41:51.396Z,14.38
2022-10-18T14:44:39.290Z,12.48
2022-10-18T14:47:28.572Z,8.80
2022-10-18T14:50:23.438Z,8.05
2022-10-18T14:53:17.554Z,7.35
2022-10-18T14:56:07.400Z,7.00
2022-10-18T15:01:54.011Z,4.18
2022-10-18T15:04:44.775Z,4.70
2022-10-18T16:07:54.288Z,3.92
2022-10-18T16:13:29.972Z,3.60
2022-10-18T16:16:21.376Z,3.90
2022-10-18T16:19:10.272Z,4.13
2022-10-18T16:22:01.118Z,4.75
2022-10-18T16:24:53.232Z,5.53
2022-10-18T16:27:41.147Z,6.97
2022-10-18T16:30:32.502Z,5.70
2022-10-18T16:33:21.621Z,5.43
2022-10-18T16:36:12.345Z,4.25
2022-10-18T18:06:16.626Z,8.93
2022-10-18T18:09:08.147Z,8.32
2022-10-18T18:11:55.847Z,7.97
2022-10-18T18:14:43.738Z,7.25
2022-10-18T18:17:34.499Z,7.15
2022-10-18T18:28:52.021Z,7.15
2022-10-18T18:31:43.473Z,7.13
2022-10-18T18:34:31.947Z,8.65
2022-10-18T18:37:19.783Z,8.65
2022-10-18T18:40:10.109Z,9.45
2022-10-18T18:43:12.107Z,9.00
2022-10-18T18:46:06.440Z,9.15
2022-10-18T18:48:53.972Z,8.45
2022-10-18T18:51:42.503Z,9.15
2022-10-18T18:54:31.685Z,7.80
2022-10-18T18:57:20.973Z,7.88
2022-10-18T19:00:10.561Z,7.85
2022-10-18T19:02:58.111Z,8.35
2022-10-18T19:05:45.811Z,7.70
2022-10-18T19:08:35.244Z,8.10
2022-10-18T19:11:24.116Z,7.32
2022-10-18T19:14:13.778Z,8.77
2022-10-18T19:17:02.483Z,7.22
2022-10-18T19:19:50.011Z,8.48
2022-10-18T19:36:48.693Z,10.00
2022-10-18T19:39:37.096Z,10.10
2022-10-18T19:42:30.361Z,10.13
2022-10-18T19:45:19.359Z,9.80
2022-10-18T19:48:12.371Z,10.50
2022-10-18T19:51:07.086Z,9.50
2022-10-18T19:53:57.746Z,9.85
2022-10-18T19:56:45.910Z,10.05
2022-10-18T19:59:34.255Z,10.45
2022-10-18T20:02:22.076Z,12.55
2022-10-18T20:05:12.004Z,11.77
2022-10-18T20:07:59.856Z,11.73
2022-10-18T20:10:47.799Z,12.02
2022-10-18T20:13:36.717Z,11.13
2022-10-18T20:16:28.609Z,10.85
2022-10-18T21:18:07.363Z,12.15
2022-10-18T21:20:55.662Z,12.15
2022-10-18T21:23:43.936Z,12.25
2022-10-18T21:26:31.796Z,12.20
2022-10-18T21:29:22.577Z,12.30
2022-10-18T21:32:10.761Z,12.50
2022-10-18T21:54:33.706Z,12.93
2022-10-18T21:57:21.736Z,13.05
2022-10-18T22:00:10.610Z,12.25
2022-10-18T22:03:09.505Z,14.20
2022-10-18T22:06:02.391Z,12.02
2022-10-18T22:08:51.918Z,12.02
2022-10-18T22:11:43.230Z,12.80
2022-10-18T22:14:31.495Z,13.13
2022-10-18T22:17:19.395Z,12.32
2022-10-18T22:20:09.986Z,11.93
2022-10-18T22:22:57.923Z,12.52
2022-10-18T22:25:45.634Z,11.55
2022-10-18T22:28:33.527Z,13.02
2022-10-18T22:31:23.353Z,12.00
2022-10-18T22:34:16.354Z,11.93
2022-10-18T22:37:05.180Z,11.27
2022-10-18T22:39:52.907Z,11.65
2022-10-18T22:42:40.753Z,12.07
2022-10-18T22:45:28.727Z,12.00
2022-10-18T22:48:16.334Z,12.07
2022-10-18T22:51:04.976Z,11.57
2022-10-18T22:53:54.376Z,11.18
2022-10-18T22:56:42.293Z,12.00
2022-10-18T22:59:30.165Z,11.50
2022-10-18T23:05:06.608Z,11.70
2022-10-18T23:30:18.524Z,12.73
2022-10-18T23:33:06.106Z,12.82
